sensor_id;sensor_type;location;lat;lon;timestamp;temperature;humidity
70184;DHT22;57554;51.546;6.776;2023-10-08T00:01:08;19.20;62.70
70184;DHT22;57554;51.546;6.776;2023-10-08T00:03:39;19.20;62.80
70184;DHT22;57554;51.546;6.776;2023-10-08T00:06:06;19.20;62.90
70184;DHT22;57554;51.546;6.776;2023-10-08T00:08:33;19.20;63.00
70184;DHT22;57554;51.546;6.776;2023-10-08T00:10:58;19.20;63.10
70184;DHT22;57554;51.546;6.776;2023-10-08T00:13:31;19.20;63.00
70184;DHT22;57554;51.546;6.776;2023-10-08T00:16:01;19.20;63.00
70184;DHT22;57554;51.546;6.776;2023-10-08T00:18:26;19.20;63.00
70184;DHT22;57554;51.546;6.776;2023-10-08T00:20:54;19.20;62.90
70184;DHT22;57554;51.546;6.776;2023-10-08T00:23:32;19.20;63.00
70184;DHT22;57554;51.546;6.776;2023-10-08T00:26:00;19.20;63.00
70184;DHT22;57554;51.546;6.776;2023-10-08T00:28:32;19.20;63.00
70184;DHT22;57554;51.546;6.776;2023-10-08T00:31:03;19.20;62.90
70184;DHT22;57554;51.546;6.776;2023-10-08T00:33:37;19.10;63.00
70184;DHT22;57554;51.546;6.776;2023-10-08T00:36:02;19.10;63.00
70184;DHT22;57554;51.546;6.776;2023-10-08T00:38:43;19.10;63.10
70184;DHT22;57554;51.546;6.776;2023-10-08T00:41:13;19.10;63.10
70184;DHT22;57554;51.546;6.776;2023-10-08T00:43:39;19.10;63.10
70184;DHT22;57554;51.546;6.776;2023-10-08T00:46:07;19.10;63.10
70184;DHT22;57554;51.546;6.776;2023-10-08T00:49:02;19.10;63.10
70184;DHT22;57554;51.546;6.776;2023-10-08T00:51:59;19.00;63.10
70184;DHT22;57554;51.546;6.776;2023-10-08T00:54:26;19.00;63.20
70184;DHT22;57554;51.546;6.776;2023-10-08T00:56:59;18.90;63.30
70184;DHT22;57554;51.546;6.776;2023-10-08T00:59:31;18.90;63.40
70184;DHT22;57554;51.546;6.776;2023-10-08T01:02:02;18.90;63.40
70184;DHT22;57554;51.546;6.776;2023-10-08T01:04:33;18.80;63.50
70184;DHT22;57554;51.546;6.776;2023-10-08T01:07:01;18.80;63.60
70184;DHT22;57554;51.546;6.776;2023-10-08T01:09:35;18.80;63.70
70184;DHT22;57554;51.546;6.776;2023-10-08T01:12:13;18.80;63.60
70184;DHT22;57554;51.546;6.776;2023-10-08T01:14:42;18.80;63.70
70184;DHT22;57554;51.546;6.776;2023-10-08T01:17:09;18.80;63.60
70184;DHT22;57554;51.546;6.776;2023-10-08T01:19:38;18.80;63.60
70184;DHT22;57554;51.546;6.776;2023-10-08T01:22:06;18.80;63.70
70184;DHT22;57554;51.546;6.776;2023-10-08T01:24:33;18.80;63.70
70184;DHT22;57554;51.546;6.776;2023-10-08T01:27:00;18.80;63.60
70184;DHT22;57554;51.546;6.776;2023-10-08T01:29:30;18.80;63.70
70184;DHT22;57554;51.546;6.776;2023-10-08T01:31:57;18.80;63.70
70184;DHT22;57554;51.546;6.776;2023-10-08T01:34:23;18.80;63.80
70184;DHT22;57554;51.546;6.776;2023-10-08T01:37:01;18.80;63.80
70184;DHT22;57554;51.546;6.776;2023-10-08T01:39:30;18.80;63.90
70184;DHT22;57554;51.546;6.776;2023-10-08T01:41:57;18.70;63.80
70184;DHT22;57554;51.546;6.776;2023-10-08T01:44:23;18.80;63.80
70184;DHT22;57554;51.546;6.776;2023-10-08T01:46:49;18.70;63.90
70184;DHT22;57554;51.546;6.776;2023-10-08T01:49:15;18.70;64.00
70184;DHT22;57554;51.546;6.776;2023-10-08T01:51:42;18.60;64.10
70184;DHT22;57554;51.546;6.776;2023-10-08T01:54:13;18.50;64.30
70184;DHT22;57554;51.546;6.776;2023-10-08T01:56:42;18.40;64.50
70184;DHT22;57554;51.546;6.776;2023-10-08T01:59:09;18.40;64.60
70184;DHT22;57554;51.546;6.776;2023-10-08T02:01:36;18.40;64.60
70184;DHT22;57554;51.546;6.776;2023-10-08T02:04:02;18.40;64.70
70184;DHT22;57554;51.546;6.776;2023-10-08T02:06:27;18.30;64.80
70184;DHT22;57554;51.546;6.776;2023-10-08T02:08:53;18.30;64.80
70184;DHT22;57554;51.546;6.776;2023-10-08T02:11:18;18.30;64.80
70184;DHT22;57554;51.546;6.776;2023-10-08T02:13:45;18.30;64.90
70184;DHT22;57554;51.546;6.776;2023-10-08T02:16:18;18.30;65.00
70184;DHT22;57554;51.546;6.776;2023-10-08T02:18:43;18.30;65.10
70184;DHT22;57554;51.546;6.776;2023-10-08T02:21:09;18.30;65.10
70184;DHT22;57554;51.546;6.776;2023-10-08T02:23:36;18.30;65.20
70184;DHT22;57554;51.546;6.776;2023-10-08T02:26:01;18.20;65.30
70184;DHT22;57554;51.546;6.776;2023-10-08T02:28:27;18.10;65.50
70184;DHT22;57554;51.546;6.776;2023-10-08T02:30:54;18.10;65.70
70184;DHT22;57554;51.546;6.776;2023-10-08T02:33:19;18.10;65.80
70184;DHT22;57554;51.546;6.776;2023-10-08T02:35:46;18.10;65.90
70184;DHT22;57554;51.546;6.776;2023-10-08T02:38:16;18.00;65.90
70184;DHT22;57554;51.546;6.776;2023-10-08T02:40:43;18.00;65.90
70184;DHT22;57554;51.546;6.776;2023-10-08T02:43:13;17.90;65.90
70184;DHT22;57554;51.546;6.776;2023-10-08T02:45:43;17.80;66.00
70184;DHT22;57554;51.546;6.776;2023-10-08T02:48:13;17.80;66.10
70184;DHT22;57554;51.546;6.776;2023-10-08T02:50:42;17.70;66.30
70184;DHT22;57554;51.546;6.776;2023-10-08T02:53:09;17.70;66.40
70184;DHT22;57554;51.546;6.776;2023-10-08T02:55:40;17.70;66.40
70184;DHT22;57554;51.546;6.776;2023-10-08T02:58:15;17.70;66.40
70184;DHT22;57554;51.546;6.776;2023-10-08T03:00:45;17.70;66.50
70184;DHT22;57554;51.546;6.776;2023-10-08T03:03:14;17.70;66.50
70184;DHT22;57554;51.546;6.776;2023-10-08T03:05:47;17.80;66.50
70184;DHT22;57554;51.546;6.776;2023-10-08T03:08:14;17.80;66.40
70184;DHT22;57554;51.546;6.776;2023-10-08T03:10:45;17.80;66.30
70184;DHT22;57554;51.546;6.776;2023-10-08T03:13:11;17.90;66.20
70184;DHT22;57554;51.546;6.776;2023-10-08T03:15:40;18.00;66.10
70184;DHT22;57554;51.546;6.776;2023-10-08T03:18:06;18.00;66.00
70184;DHT22;57554;51.546;6.776;2023-10-08T03:20:41;18.00;65.90
70184;DHT22;57554;51.546;6.776;2023-10-08T03:23:15;18.10;65.80
70184;DHT22;57554;51.546;6.776;2023-10-08T03:26:01;18.10;65.80
70184;DHT22;57554;51.546;6.776;2023-10-08T03:28:37;18.00;65.80
70184;DHT22;57554;51.546;6.776;2023-10-08T03:31:03;18.00;65.80
70184;DHT22;57554;51.546;6.776;2023-10-08T03:33:31;17.90;65.90
70184;DHT22;57554;51.546;6.776;2023-10-08T03:36:06;17.80;66.10
70184;DHT22;57554;51.546;6.776;2023-10-08T03:38:48;17.80;66.20
70184;DHT22;57554;51.546;6.776;2023-10-08T03:41:18;17.70;66.40
70184;DHT22;57554;51.546;6.776;2023-10-08T03:43:44;17.70;66.50
70184;DHT22;57554;51.546;6.776;2023-10-08T03:46:20;17.70;66.50
70184;DHT22;57554;51.546;6.776;2023-10-08T03:48:47;17.60;66.60
70184;DHT22;57554;51.546;6.776;2023-10-08T03:51:16;17.60;66.70
70184;DHT22;57554;51.546;6.776;2023-10-08T03:53:45;17.60;66.60
70184;DHT22;57554;51.546;6.776;2023-10-08T03:56:29;17.60;66.70
70184;DHT22;57554;51.546;6.776;2023-10-08T03:58:58;17.60;66.60
70184;DHT22;57554;51.546;6.776;2023-10-08T04:01:29;17.60;66.50
70184;DHT22;57554;51.546;6.776;2023-10-08T04:03:57;17.70;66.40
70184;DHT22;57554;51.546;6.776;2023-10-08T04:06:26;17.60;66.40
70184;DHT22;57554;51.546;6.776;2023-10-08T04:09:01;17.50;66.50
70184;DHT22;57554;51.546;6.776;2023-10-08T04:11:49;17.50;66.60
70184;DHT22;57554;51.546;6.776;2023-10-08T04:14:15;17.40;66.70
70184;DHT22;57554;51.546;6.776;2023-10-08T04:16:44;17.40;66.90
70184;DHT22;57554;51.546;6.776;2023-10-08T04:19:10;17.30;66.90
70184;DHT22;57554;51.546;6.776;2023-10-08T04:21:37;17.30;67.00
70184;DHT22;57554;51.546;6.776;2023-10-08T04:24:03;17.20;67.10
70184;DHT22;57554;51.546;6.776;2023-10-08T04:26:31;17.20;67.20
70184;DHT22;57554;51.546;6.776;2023-10-08T04:28:59;17.20;67.30
70184;DHT22;57554;51.546;6.776;2023-10-08T04:31:30;17.20;67.30
70184;DHT22;57554;51.546;6.776;2023-10-08T04:34:09;17.30;67.20
70184;DHT22;57554;51.546;6.776;2023-10-08T04:36:44;17.30;67.10
70184;DHT22;57554;51.546;6.776;2023-10-08T04:39:19;17.40;66.90
70184;DHT22;57554;51.546;6.776;2023-10-08T04:42:05;17.50;66.80
70184;DHT22;57554;51.546;6.776;2023-10-08T04:44:35;17.60;66.60
70184;DHT22;57554;51.546;6.776;2023-10-08T04:47:04;17.50;66.40
70184;DHT22;57554;51.546;6.776;2023-10-08T04:49:30;17.50;66.50
70184;DHT22;57554;51.546;6.776;2023-10-08T04:52:01;17.60;66.40
70184;DHT22;57554;51.546;6.776;2023-10-08T04:54:33;17.60;66.40
70184;DHT22;57554;51.546;6.776;2023-10-08T04:57:06;17.60;66.20
70184;DHT22;57554;51.546;6.776;2023-10-08T04:59:33;17.60;66.10
70184;DHT22;57554;51.546;6.776;2023-10-08T05:02:03;17.60;65.90
70184;DHT22;57554;51.546;6.776;2023-10-08T05:04:49;17.60;65.90
70184;DHT22;57554;51.546;6.776;2023-10-08T05:07:18;17.60;65.90
70184;DHT22;57554;51.546;6.776;2023-10-08T05:10:06;17.60;65.90
70184;DHT22;57554;51.546;6.776;2023-10-08T05:12:32;17.60;66.00
70184;DHT22;57554;51.546;6.776;2023-10-08T05:14:58;17.70;65.90
70184;DHT22;57554;51.546;6.776;2023-10-08T05:17:43;17.70;65.80
70184;DHT22;57554;51.546;6.776;2023-10-08T05:20:18;17.70;65.60
70184;DHT22;57554;51.546;6.776;2023-10-08T05:23:12;17.70;65.70
70184;DHT22;57554;51.546;6.776;2023-10-08T05:25:54;17.70;65.70
70184;DHT22;57554;51.546;6.776;2023-10-08T05:28:36;17.70;65.70
70184;DHT22;57554;51.546;6.776;2023-10-08T05:31:13;17.60;65.70
70184;DHT22;57554;51.546;6.776;2023-10-08T05:33:42;17.60;65.60
70184;DHT22;57554;51.546;6.776;2023-10-08T05:36:26;17.50;65.70
70184;DHT22;57554;51.546;6.776;2023-10-08T05:39:18;17.40;65.90
70184;DHT22;57554;51.546;6.776;2023-10-08T05:41:50;17.20;66.40
70184;DHT22;57554;51.546;6.776;2023-10-08T05:44:30;17.20;66.70
70184;DHT22;57554;51.546;6.776;2023-10-08T05:47:08;17.10;66.90
70184;DHT22;57554;51.546;6.776;2023-10-08T05:50:04;17.10;67.10
70184;DHT22;57554;51.546;6.776;2023-10-08T05:52:47;17.10;67.20
70184;DHT22;57554;51.546;6.776;2023-10-08T05:55:35;17.20;67.10
70184;DHT22;57554;51.546;6.776;2023-10-08T05:58:08;17.20;67.10
70184;DHT22;57554;51.546;6.776;2023-10-08T06:00:50;17.30;67.00
70184;DHT22;57554;51.546;6.776;2023-10-08T06:03:17;17.40;66.80
70184;DHT22;57554;51.546;6.776;2023-10-08T06:06:02;17.40;66.60
70184;DHT22;57554;51.546;6.776;2023-10-08T06:08:49;17.40;66.50
70184;DHT22;57554;51.546;6.776;2023-10-08T06:11:20;17.40;66.50
70184;DHT22;57554;51.546;6.776;2023-10-08T06:14:05;17.40;66.60
70184;DHT22;57554;51.546;6.776;2023-10-08T06:16:54;17.40;66.60
70184;DHT22;57554;51.546;6.776;2023-10-08T06:19:39;17.40;66.70
70184;DHT22;57554;51.546;6.776;2023-10-08T06:22:05;17.40;66.60
70184;DHT22;57554;51.546;6.776;2023-10-08T06:24:31;17.50;66.50
70184;DHT22;57554;51.546;6.776;2023-10-08T06:26:58;17.50;66.40
70184;DHT22;57554;51.546;6.776;2023-10-08T06:29:30;17.50;66.30
70184;DHT22;57554;51.546;6.776;2023-10-08T06:31:57;17.50;66.40
70184;DHT22;57554;51.546;6.776;2023-10-08T06:34:30;17.60;66.30
70184;DHT22;57554;51.546;6.776;2023-10-08T06:36:58;17.60;66.20
70184;DHT22;57554;51.546;6.776;2023-10-08T06:39:25;17.60;66.10
70184;DHT22;57554;51.546;6.776;2023-10-08T06:42:13;17.70;66.10
70184;DHT22;57554;51.546;6.776;2023-10-08T06:44:39;17.70;66.10
70184;DHT22;57554;51.546;6.776;2023-10-08T06:47:08;17.70;66.10
70184;DHT22;57554;51.546;6.776;2023-10-08T06:49:35;17.70;65.90
70184;DHT22;57554;51.546;6.776;2023-10-08T06:52:01;17.70;65.90
70184;DHT22;57554;51.546;6.776;2023-10-08T06:54:27;17.70;65.90
70184;DHT22;57554;51.546;6.776;2023-10-08T06:56:56;17.70;65.90
70184;DHT22;57554;51.546;6.776;2023-10-08T06:59:22;17.70;65.90
70184;DHT22;57554;51.546;6.776;2023-10-08T07:01:49;17.70;65.90
70184;DHT22;57554;51.546;6.776;2023-10-08T07:04:17;17.70;65.80
70184;DHT22;57554;51.546;6.776;2023-10-08T07:06:46;17.70;65.80
70184;DHT22;57554;51.546;6.776;2023-10-08T07:09:13;17.70;65.90
70184;DHT22;57554;51.546;6.776;2023-10-08T07:11:51;17.70;66.00
70184;DHT22;57554;51.546;6.776;2023-10-08T07:14:29;17.80;66.20
70184;DHT22;57554;51.546;6.776;2023-10-08T07:16:57;17.80;66.30
70184;DHT22;57554;51.546;6.776;2023-10-08T07:19:27;17.80;66.40
70184;DHT22;57554;51.546;6.776;2023-10-08T07:22:03;17.80;66.60
70184;DHT22;57554;51.546;6.776;2023-10-08T07:24:31;17.80;66.60
70184;DHT22;57554;51.546;6.776;2023-10-08T07:27:01;17.80;66.60
70184;DHT22;57554;51.546;6.776;2023-10-08T07:29:31;17.80;66.60
70184;DHT22;57554;51.546;6.776;2023-10-08T07:31:58;17.80;66.70
70184;DHT22;57554;51.546;6.776;2023-10-08T07:34:38;17.80;66.70
70184;DHT22;57554;51.546;6.776;2023-10-08T07:37:04;17.80;66.80
70184;DHT22;57554;51.546;6.776;2023-10-08T07:39:31;17.90;66.90
70184;DHT22;57554;51.546;6.776;2023-10-08T07:41:58;18.00;67.00
70184;DHT22;57554;51.546;6.776;2023-10-08T07:44:25;18.00;67.00
70184;DHT22;57554;51.546;6.776;2023-10-08T07:46:52;18.10;67.00
70184;DHT22;57554;51.546;6.776;2023-10-08T07:49:21;18.10;66.90
70184;DHT22;57554;51.546;6.776;2023-10-08T07:51:48;18.20;66.80
70184;DHT22;57554;51.546;6.776;2023-10-08T07:54:21;18.20;66.70
70184;DHT22;57554;51.546;6.776;2023-10-08T07:56:50;18.20;66.60
70184;DHT22;57554;51.546;6.776;2023-10-08T07:59:38;18.20;66.60
70184;DHT22;57554;51.546;6.776;2023-10-08T08:02:08;18.20;66.60
70184;DHT22;57554;51.546;6.776;2023-10-08T08:04:41;18.20;66.70
70184;DHT22;57554;51.546;6.776;2023-10-08T08:07:09;18.20;66.80
70184;DHT22;57554;51.546;6.776;2023-10-08T08:09:42;18.20;67.00
70184;DHT22;57554;51.546;6.776;2023-10-08T08:12:19;18.20;67.10
70184;DHT22;57554;51.546;6.776;2023-10-08T08:14:45;18.10;67.30
70184;DHT22;57554;51.546;6.776;2023-10-08T08:17:10;18.00;67.50
70184;DHT22;57554;51.546;6.776;2023-10-08T08:19:43;18.00;67.70
70184;DHT22;57554;51.546;6.776;2023-10-08T08:22:10;17.90;67.80
70184;DHT22;57554;51.546;6.776;2023-10-08T08:24:41;17.80;67.90
70184;DHT22;57554;51.546;6.776;2023-10-08T08:27:10;17.70;68.10
70184;DHT22;57554;51.546;6.776;2023-10-08T08:29:56;17.60;68.20
70184;DHT22;57554;51.546;6.776;2023-10-08T08:32:27;17.60;68.20
70184;DHT22;57554;51.546;6.776;2023-10-08T08:34:53;17.50;68.20
70184;DHT22;57554;51.546;6.776;2023-10-08T08:37:19;17.50;68.20
70184;DHT22;57554;51.546;6.776;2023-10-08T08:39:48;17.40;68.30
70184;DHT22;57554;51.546;6.776;2023-10-08T08:42:14;17.40;68.30
70184;DHT22;57554;51.546;6.776;2023-10-08T08:44:44;17.40;68.40
70184;DHT22;57554;51.546;6.776;2023-10-08T08:47:14;17.40;68.40
70184;DHT22;57554;51.546;6.776;2023-10-08T08:49:44;17.40;68.40
70184;DHT22;57554;51.546;6.776;2023-10-08T08:52:10;17.50;68.20
70184;DHT22;57554;51.546;6.776;2023-10-08T08:54:36;17.40;68.20
70184;DHT22;57554;51.546;6.776;2023-10-08T08:57:03;17.40;68.10
70184;DHT22;57554;51.546;6.776;2023-10-08T08:59:49;17.40;68.20
70184;DHT22;57554;51.546;6.776;2023-10-08T09:02:18;17.30;68.30
70184;DHT22;57554;51.546;6.776;2023-10-08T09:04:44;17.30;68.50
70184;DHT22;57554;51.546;6.776;2023-10-08T09:07:12;17.30;68.50
70184;DHT22;57554;51.546;6.776;2023-10-08T09:09:37;17.40;68.60
70184;DHT22;57554;51.546;6.776;2023-10-08T09:12:05;17.40;68.60
70184;DHT22;57554;51.546;6.776;2023-10-08T09:14:31;17.40;68.40
70184;DHT22;57554;51.546;6.776;2023-10-08T09:17:01;17.40;68.30
70184;DHT22;57554;51.546;6.776;2023-10-08T09:19:30;17.40;68.30
70184;DHT22;57554;51.546;6.776;2023-10-08T09:22:06;17.40;68.10
70184;DHT22;57554;51.546;6.776;2023-10-08T09:24:36;17.40;68.10
70184;DHT22;57554;51.546;6.776;2023-10-08T09:27:11;17.30;68.00
70184;DHT22;57554;51.546;6.776;2023-10-08T09:29:40;17.30;67.90
70184;DHT22;57554;51.546;6.776;2023-10-08T09:32:08;17.30;67.80
70184;DHT22;57554;51.546;6.776;2023-10-08T09:34:34;17.30;67.90
70184;DHT22;57554;51.546;6.776;2023-10-08T09:37:01;17.30;68.00
70184;DHT22;57554;51.546;6.776;2023-10-08T09:39:30;17.30;67.90
70184;DHT22;57554;51.546;6.776;2023-10-08T09:42:01;17.30;67.80
70184;DHT22;57554;51.546;6.776;2023-10-08T09:44:32;17.30;67.70
70184;DHT22;57554;51.546;6.776;2023-10-08T09:47:03;17.30;67.80
70184;DHT22;57554;51.546;6.776;2023-10-08T09:49:36;17.30;67.70
70184;DHT22;57554;51.546;6.776;2023-10-08T09:52:04;17.30;67.60
70184;DHT22;57554;51.546;6.776;2023-10-08T09:54:37;17.30;67.70
70184;DHT22;57554;51.546;6.776;2023-10-08T09:57:07;17.20;67.70
70184;DHT22;57554;51.546;6.776;2023-10-08T09:59:34;17.20;67.80
70184;DHT22;57554;51.546;6.776;2023-10-08T10:02:00;17.20;67.90
70184;DHT22;57554;51.546;6.776;2023-10-08T10:04:30;17.10;68.00
70184;DHT22;57554;51.546;6.776;2023-10-08T10:06:57;17.10;67.70
70184;DHT22;57554;51.546;6.776;2023-10-08T10:09:24;17.00;67.60
70184;DHT22;57554;51.546;6.776;2023-10-08T10:11:51;17.00;67.60
70184;DHT22;57554;51.546;6.776;2023-10-08T10:14:18;17.00;67.70
70184;DHT22;57554;51.546;6.776;2023-10-08T10:19:40;16.90;68.00
70184;DHT22;57554;51.546;6.776;2023-10-08T10:22:14;16.90;67.90
70184;DHT22;57554;51.546;6.776;2023-10-08T10:24:41;17.00;67.90
70184;DHT22;57554;51.546;6.776;2023-10-08T10:27:14;17.00;67.90
70184;DHT22;57554;51.546;6.776;2023-10-08T10:29:40;17.20;67.80
70184;DHT22;57554;51.546;6.776;2023-10-08T10:32:10;17.30;67.30
70184;DHT22;57554;51.546;6.776;2023-10-08T10:34:39;17.30;66.80
70184;DHT22;57554;51.546;6.776;2023-10-08T10:37:04;17.20;66.70
70184;DHT22;57554;51.546;6.776;2023-10-08T10:39:57;17.20;66.80
70184;DHT22;57554;51.546;6.776;2023-10-08T10:42:29;17.10;66.60
70184;DHT22;57554;51.546;6.776;2023-10-08T10:44:55;17.10;66.70
70184;DHT22;57554;51.546;6.776;2023-10-08T10:47:22;17.00;66.70
70184;DHT22;57554;51.546;6.776;2023-10-08T10:49:49;17.00;66.80
70184;DHT22;57554;51.546;6.776;2023-10-08T10:52:25;17.00;66.80
70184;DHT22;57554;51.546;6.776;2023-10-08T10:55:07;17.00;66.90
70184;DHT22;57554;51.546;6.776;2023-10-08T10:57:42;17.00;66.90
70184;DHT22;57554;51.546;6.776;2023-10-08T11:00:09;17.00;66.70
70184;DHT22;57554;51.546;6.776;2023-10-08T11:02:59;17.00;66.60
70184;DHT22;57554;51.546;6.776;2023-10-08T11:05:34;17.00;66.70
70184;DHT22;57554;51.546;6.776;2023-10-08T11:08:03;17.00;66.60
70184;DHT22;57554;51.546;6.776;2023-10-08T11:10:42;17.00;66.70
70184;DHT22;57554;51.546;6.776;2023-10-08T11:13:23;17.00;66.70
70184;DHT22;57554;51.546;6.776;2023-10-08T11:15:54;17.10;66.60
70184;DHT22;57554;51.546;6.776;2023-10-08T11:18:24;17.10;66.40
70184;DHT22;57554;51.546;6.776;2023-10-08T11:20:51;17.20;66.20
70184;DHT22;57554;51.546;6.776;2023-10-08T11:23:32;17.30;66.00
70184;DHT22;57554;51.546;6.776;2023-10-08T11:26:00;17.40;65.60
70184;DHT22;57554;51.546;6.776;2023-10-08T11:28:28;17.40;65.40
70184;DHT22;57554;51.546;6.776;2023-10-08T11:30:54;17.60;65.40
70184;DHT22;57554;51.546;6.776;2023-10-08T11:33:22;17.60;65.10
70184;DHT22;57554;51.546;6.776;2023-10-08T11:36:00;17.70;64.80
70184;DHT22;57554;51.546;6.776;2023-10-08T11:38:26;17.80;64.40
70184;DHT22;57554;51.546;6.776;2023-10-08T11:40:54;17.80;64.20
70184;DHT22;57554;51.546;6.776;2023-10-08T11:43:24;17.80;64.00
70184;DHT22;57554;51.546;6.776;2023-10-08T11:45:51;17.80;63.90
70184;DHT22;57554;51.546;6.776;2023-10-08T11:48:18;17.80;64.00
70184;DHT22;57554;51.546;6.776;2023-10-08T11:50:51;17.80;64.00
70184;DHT22;57554;51.546;6.776;2023-10-08T11:53:17;17.90;63.80
70184;DHT22;57554;51.546;6.776;2023-10-08T11:55:44;17.90;63.80
70184;DHT22;57554;51.546;6.776;2023-10-08T11:58:13;18.00;63.80
70184;DHT22;57554;51.546;6.776;2023-10-08T12:00:44;18.10;63.70
70184;DHT22;57554;51.546;6.776;2023-10-08T12:03:13;18.20;63.60
70184;DHT22;57554;51.546;6.776;2023-10-08T12:05:46;18.30;63.30
70184;DHT22;57554;51.546;6.776;2023-10-08T12:08:13;18.30;63.40
70184;DHT22;57554;51.546;6.776;2023-10-08T12:10:44;18.40;63.30
70184;DHT22;57554;51.546;6.776;2023-10-08T12:13:14;18.40;63.20
70184;DHT22;57554;51.546;6.776;2023-10-08T12:15:41;18.40;63.10
70184;DHT22;57554;51.546;6.776;2023-10-08T12:18:10;18.50;63.00
70184;DHT22;57554;51.546;6.776;2023-10-08T12:20:50;18.50;62.80
70184;DHT22;57554;51.546;6.776;2023-10-08T12:23:16;18.60;62.50
70184;DHT22;57554;51.546;6.776;2023-10-08T12:25:54;18.60;62.50
70184;DHT22;57554;51.546;6.776;2023-10-08T12:28:24;18.60;62.40
70184;DHT22;57554;51.546;6.776;2023-10-08T12:30:51;18.50;62.10
70184;DHT22;57554;51.546;6.776;2023-10-08T12:33:22;18.50;62.10
70184;DHT22;57554;51.546;6.776;2023-10-08T12:35:50;18.40;62.10
70184;DHT22;57554;51.546;6.776;2023-10-08T12:38:21;18.30;62.00
70184;DHT22;57554;51.546;6.776;2023-10-08T12:40:51;18.30;62.10
70184;DHT22;57554;51.546;6.776;2023-10-08T12:43:24;18.30;62.00
70184;DHT22;57554;51.546;6.776;2023-10-08T12:45:53;18.20;62.00
70184;DHT22;57554;51.546;6.776;2023-10-08T12:48:26;18.20;62.00
70184;DHT22;57554;51.546;6.776;2023-10-08T12:50:53;18.20;62.10
70184;DHT22;57554;51.546;6.776;2023-10-08T12:53:23;18.20;62.20
70184;DHT22;57554;51.546;6.776;2023-10-08T12:56:07;18.20;62.20
70184;DHT22;57554;51.546;6.776;2023-10-08T12:58:40;18.20;62.30
70184;DHT22;57554;51.546;6.776;2023-10-08T13:01:19;18.20;62.30
70184;DHT22;57554;51.546;6.776;2023-10-08T13:03:45;18.30;62.00
70184;DHT22;57554;51.546;6.776;2023-10-08T13:06:16;18.30;61.90
70184;DHT22;57554;51.546;6.776;2023-10-08T13:08:48;18.30;61.90
70184;DHT22;57554;51.546;6.776;2023-10-08T13:11:14;18.40;61.80
70184;DHT22;57554;51.546;6.776;2023-10-08T13:13:40;18.40;61.80
70184;DHT22;57554;51.546;6.776;2023-10-08T13:16:06;18.40;61.60
70184;DHT22;57554;51.546;6.776;2023-10-08T13:18:35;18.40;61.50
70184;DHT22;57554;51.546;6.776;2023-10-08T13:21:03;18.40;61.30
70184;DHT22;57554;51.546;6.776;2023-10-08T13:23:29;18.40;61.40
70184;DHT22;57554;51.546;6.776;2023-10-08T13:25:55;18.40;61.40
70184;DHT22;57554;51.546;6.776;2023-10-08T13:28:21;18.40;61.30
70184;DHT22;57554;51.546;6.776;2023-10-08T13:30:48;18.40;61.40
70184;DHT22;57554;51.546;6.776;2023-10-08T13:33:26;18.40;62.00
70184;DHT22;57554;51.546;6.776;2023-10-08T13:35:52;18.40;62.20
70184;DHT22;57554;51.546;6.776;2023-10-08T13:38:18;18.50;62.30
70184;DHT22;57554;51.546;6.776;2023-10-08T13:40:48;18.50;62.40
70184;DHT22;57554;51.546;6.776;2023-10-08T13:43:34;18.50;62.70
70184;DHT22;57554;51.546;6.776;2023-10-08T13:46:05;18.60;62.50
70184;DHT22;57554;51.546;6.776;2023-10-08T13:48:33;18.60;62.60
70184;DHT22;57554;51.546;6.776;2023-10-08T13:51:04;18.70;62.60
70184;DHT22;57554;51.546;6.776;2023-10-08T13:53:31;18.80;62.60
70184;DHT22;57554;51.546;6.776;2023-10-08T13:56:00;19.00;62.30
70184;DHT22;57554;51.546;6.776;2023-10-08T13:58:27;19.10;61.90
70184;DHT22;57554;51.546;6.776;2023-10-08T14:00:59;19.10;61.60
70184;DHT22;57554;51.546;6.776;2023-10-08T14:03:44;19.20;61.10
70184;DHT22;57554;51.546;6.776;2023-10-08T14:06:10;19.20;61.00
70184;DHT22;57554;51.546;6.776;2023-10-08T14:08:36;19.20;60.90
70184;DHT22;57554;51.546;6.776;2023-10-08T14:11:01;19.20;61.00
70184;DHT22;57554;51.546;6.776;2023-10-08T14:13:31;19.20;60.90
70184;DHT22;57554;51.546;6.776;2023-10-08T14:15:58;19.20;60.60
70184;DHT22;57554;51.546;6.776;2023-10-08T14:18:24;19.20;60.60
70184;DHT22;57554;51.546;6.776;2023-10-08T14:20:57;19.10;60.70
70184;DHT22;57554;51.546;6.776;2023-10-08T14:23:23;19.10;60.70
70184;DHT22;57554;51.546;6.776;2023-10-08T14:25:51;19.00;60.90
70184;DHT22;57554;51.546;6.776;2023-10-08T14:28:18;19.00;61.00
70184;DHT22;57554;51.546;6.776;2023-10-08T14:30:48;18.90;61.30
70184;DHT22;57554;51.546;6.776;2023-10-08T14:33:21;19.00;61.70
70184;DHT22;57554;51.546;6.776;2023-10-08T14:35:52;19.00;61.70
70184;DHT22;57554;51.546;6.776;2023-10-08T14:38:36;19.10;61.70
70184;DHT22;57554;51.546;6.776;2023-10-08T14:41:20;19.10;61.60
70184;DHT22;57554;51.546;6.776;2023-10-08T14:44:04;19.20;61.40
70184;DHT22;57554;51.546;6.776;2023-10-08T14:46:32;19.20;61.40
70184;DHT22;57554;51.546;6.776;2023-10-08T14:48:59;19.10;61.30
70184;DHT22;57554;51.546;6.776;2023-10-08T14:51:27;19.10;61.30
70184;DHT22;57554;51.546;6.776;2023-10-08T14:53:53;19.00;61.30
70184;DHT22;57554;51.546;6.776;2023-10-08T14:56:18;19.00;61.30
70184;DHT22;57554;51.546;6.776;2023-10-08T14:58:45;19.00;61.40
70184;DHT22;57554;51.546;6.776;2023-10-08T15:01:13;18.90;61.50
70184;DHT22;57554;51.546;6.776;2023-10-08T15:03:40;18.90;61.50
70184;DHT22;57554;51.546;6.776;2023-10-08T15:06:05;18.90;61.50
70184;DHT22;57554;51.546;6.776;2023-10-08T15:08:33;18.90;61.60
70184;DHT22;57554;51.546;6.776;2023-10-08T15:10:59;18.90;61.70
70184;DHT22;57554;51.546;6.776;2023-10-08T15:13:25;18.90;61.70
70184;DHT22;57554;51.546;6.776;2023-10-08T15:15:52;18.90;61.60
70184;DHT22;57554;51.546;6.776;2023-10-08T15:18:17;18.90;61.80
70184;DHT22;57554;51.546;6.776;2023-10-08T15:20:44;18.80;61.90
70184;DHT22;57554;51.546;6.776;2023-10-08T15:23:09;18.90;62.10
70184;DHT22;57554;51.546;6.776;2023-10-08T15:25:38;18.90;62.20
70184;DHT22;57554;51.546;6.776;2023-10-08T15:28:05;18.90;62.20
70184;DHT22;57554;51.546;6.776;2023-10-08T15:30:31;18.90;62.20
70184;DHT22;57554;51.546;6.776;2023-10-08T15:32:58;18.90;62.10
70184;DHT22;57554;51.546;6.776;2023-10-08T15:35:23;18.90;62.20
70184;DHT22;57554;51.546;6.776;2023-10-08T15:37:50;18.90;62.20
70184;DHT22;57554;51.546;6.776;2023-10-08T15:40:16;18.90;62.20
70184;DHT22;57554;51.546;6.776;2023-10-08T15:42:53;18.90;62.30
70184;DHT22;57554;51.546;6.776;2023-10-08T15:45:20;18.80;62.50
70184;DHT22;57554;51.546;6.776;2023-10-08T15:47:49;18.80;62.50
70184;DHT22;57554;51.546;6.776;2023-10-08T15:50:15;18.80;62.50
70184;DHT22;57554;51.546;6.776;2023-10-08T15:52:41;18.80;62.50
70184;DHT22;57554;51.546;6.776;2023-10-08T15:55:08;18.70;62.60